sensor_id;sensor_type;location;lat;lon;timestamp;pressure;altitude;pressure_sealevel;temperature;humidity
2563;BME280;1291;51.420;6.970;2023-03-01T00:01:31;101360.47;;;26.71;8.75
2563;BME280;1291;51.420;6.970;2023-03-01T00:03:56;101363.47;;;26.01;9.64
2563;BME280;1291;51.420;6.970;2023-03-01T00:06:23;101368.09;;;27.74;8.51
2563;BME280;1291;51.420;6.970;2023-03-01T00:08:49;101358.03;;;27.04;8.48
2563;BME280;1291;51.420;6.970;2023-03-01T00:11:17;101366.00;;;27.07;8.55
2563;BME280;1291;51.420;6.970;2023-03-01T00:13:44;101362.97;;;28.38;8.03
2563;BME280;1291;51.420;6.970;2023-03-01T00:16:12;101364.50;;;26.44;9.08
2563;BME280;1291;51.420;6.970;2023-03-01T00:18:38;101365.59;;;26.82;8.61
2563;BME280;1291;51.420;6.970;2023-03-01T00:21:07;101355.63;;;26.93;8.83
2563;BME280;1291;51.420;6.970;2023-03-01T00:23:36;101356.84;;;26.75;8.75
2563;BME280;1291;51.420;6.970;2023-03-01T00:26:05;101354.09;;;27.23;8.42
2563;BME280;1291;51.420;6.970;2023-03-01T00:28:31;101347.03;;;28.99;7.33
2563;BME280;1291;51.420;6.970;2023-03-01T00:31:03;101353.59;;;26.58;8.82
2563;BME280;1291;51.420;6.970;2023-03-01T00:33:29;101351.44;;;25.76;9.78
2563;BME280;1291;51.420;6.970;2023-03-01T00:35:54;101344.03;;;26.46;8.86
2563;BME280;1291;51.420;6.970;2023-03-01T00:38:19;101342.63;;;28.32;7.95
2563;BME280;1291;51.420;6.970;2023-03-01T00:40:45;101325.59;;;28.71;7.53
2563;BME280;1291;51.420;6.970;2023-03-01T00:43:10;101347.94;;;25.71;9.47
2563;BME280;1291;51.420;6.970;2023-03-01T00:45:35;101343.59;;;27.14;8.69
2563;BME280;1291;51.420;6.970;2023-03-01T00:48:00;101339.16;;;26.71;8.94
2563;BME280;1291;51.420;6.970;2023-03-01T00:50:26;101335.66;;;26.68;8.98
2563;BME280;1291;51.420;6.970;2023-03-01T00:52:53;101322.19;;;28.31;8.00
2563;BME280;1291;51.420;6.970;2023-03-01T00:55:18;101334.06;;;24.82;10.02
2563;BME280;1291;51.420;6.970;2023-03-01T00:57:44;101321.63;;;27.03;8.71
2563;BME280;1291;51.420;6.970;2023-03-01T01:00:09;101319.34;;;28.72;7.79
2563;BME280;1291;51.420;6.970;2023-03-01T01:02:37;101325.72;;;25.75;9.50
2563;BME280;1291;51.420;6.970;2023-03-01T01:05:03;101311.50;;;29.27;7.15
2563;BME280;1291;51.420;6.970;2023-03-01T01:07:29;101316.28;;;28.18;7.96
2563;BME280;1291;51.420;6.970;2023-03-01T01:09:54;101319.88;;;29.14;7.51
2563;BME280;1291;51.420;6.970;2023-03-01T01:12:19;101319.38;;;26.83;8.54
2563;BME280;1291;51.420;6.970;2023-03-01T01:14:44;101320.75;;;27.82;8.21
2563;BME280;1291;51.420;6.970;2023-03-01T01:17:11;101307.72;;;28.06;8.09
2563;BME280;1291;51.420;6.970;2023-03-01T01:19:36;101304.22;;;25.87;9.40
2563;BME280;1291;51.420;6.970;2023-03-01T01:22:02;101297.53;;;28.22;7.83
2563;BME280;1291;51.420;6.970;2023-03-01T01:24:29;101297.16;;;28.68;7.61
2563;BME280;1291;51.420;6.970;2023-03-01T01:26:55;101290.63;;;28.78;7.23
2563;BME280;1291;51.420;6.970;2023-03-01T01:29:20;101281.25;;;28.31;7.76
2563;BME280;1291;51.420;6.970;2023-03-01T01:31:46;101285.91;;;27.12;8.54
2563;BME280;1291;51.420;6.970;2023-03-01T01:34:15;101282.03;;;25.32;9.65
2563;BME280;1291;51.420;6.970;2023-03-01T01:36:40;101286.00;;;24.21;10.30
2563;BME280;1291;51.420;6.970;2023-03-01T01:39:06;101275.75;;;28.03;8.02
2563;BME280;1291;51.420;6.970;2023-03-01T01:41:32;101267.78;;;26.42;8.88
2563;BME280;1291;51.420;6.970;2023-03-01T01:44:25;101272.31;;;27.24;8.59
2563;BME280;1291;51.420;6.970;2023-03-01T01:47:07;101270.03;;;27.07;8.60
2563;BME280;1291;51.420;6.970;2023-03-01T01:52:16;101267.13;;;27.16;8.40
2563;BME280;1291;51.420;6.970;2023-03-01T01:54:50;101264.31;;;25.87;9.51
2563;BME280;1291;51.420;6.970;2023-03-01T01:57:33;101265.47;;;27.11;8.87
2563;BME280;1291;51.420;6.970;2023-03-01T02:00:04;101277.75;;;25.23;9.69
2563;BME280;1291;51.420;6.970;2023-03-01T02:02:30;101272.72;;;22.85;11.60
2563;BME280;1291;51.420;6.970;2023-03-01T02:05:05;101272.00;;;24.04;10.68
2563;BME280;1291;51.420;6.970;2023-03-01T02:07:37;101278.75;;;25.12;10.30
2563;BME280;1291;51.420;6.970;2023-03-01T02:10:05;101279.53;;;25.20;10.14
2563;BME280;1291;51.420;6.970;2023-03-01T02:12:31;101281.75;;;24.03;10.70
2563;BME280;1291;51.420;6.970;2023-03-01T02:14:57;101264.63;;;25.69;9.82
2563;BME280;1291;51.420;6.970;2023-03-01T02:17:22;101266.81;;;27.32;8.20
2563;BME280;1291;51.420;6.970;2023-03-01T02:22:25;101265.47;;;26.25;8.85
2563;BME280;1291;51.420;6.970;2023-03-01T02:30:19;101249.53;;;25.71;9.38
2563;BME280;1291;51.420;6.970;2023-03-01T02:32:46;101249.44;;;25.16;9.84
2563;BME280;1291;51.420;6.970;2023-03-01T02:35:14;101254.25;;;26.08;9.13
2563;BME280;1291;51.420;6.970;2023-03-01T02:37:42;101252.91;;;26.77;8.64
2563;BME280;1291;51.420;6.970;2023-03-01T02:40:11;101251.09;;;27.57;7.92
2563;BME280;1291;51.420;6.970;2023-03-01T02:42:46;101250.16;;;27.20;8.56
2563;BME280;1291;51.420;6.970;2023-03-01T02:45:13;101251.91;;;28.29;7.69
2563;BME280;1291;51.420;6.970;2023-03-01T02:47:39;101246.97;;;28.15;8.14
2563;BME280;1291;51.420;6.970;2023-03-01T02:50:15;101243.22;;;28.54;7.76
2563;BME280;1291;51.420;6.970;2023-03-01T02:52:56;101249.72;;;27.01;8.50
2563;BME280;1291;51.420;6.970;2023-03-01T02:55:25;101248.34;;;28.62;7.60
2563;BME280;1291;51.420;6.970;2023-03-01T02:57:53;101259.78;;;24.74;10.07
2563;BME280;1291;51.420;6.970;2023-03-01T03:00:21;101255.78;;;24.35;10.69
2563;BME280;1291;51.420;6.970;2023-03-01T03:02:50;101255.69;;;26.26;8.97
2563;BME280;1291;51.420;6.970;2023-03-01T03:05:24;101257.28;;;24.59;10.53
2563;BME280;1291;51.420;6.970;2023-03-01T03:07:51;101257.63;;;24.26;10.33
2563;BME280;1291;51.420;6.970;2023-03-01T03:10:21;101252.41;;;24.95;10.15
2563;BME280;1291;51.420;6.970;2023-03-01T03:12:52;101250.47;;;26.19;9.38
2563;BME280;1291;51.420;6.970;2023-03-01T03:15:18;101252.03;;;25.80;9.51
2563;BME280;1291;51.420;6.970;2023-03-01T03:17:43;101258.41;;;23.33;11.15
2563;BME280;1291;51.420;6.970;2023-03-01T03:20:11;101253.50;;;22.19;12.32
2563;BME280;1291;51.420;6.970;2023-03-01T03:22:40;101240.31;;;23.87;10.92
2563;BME280;1291;51.420;6.970;2023-03-01T03:25:07;101252.69;;;21.58;12.49
2563;BME280;1291;51.420;6.970;2023-03-01T03:27:38;101253.16;;;25.06;10.02
2563;BME280;1291;51.420;6.970;2023-03-01T03:30:07;101243.94;;;23.80;10.86
2563;BME280;1291;51.420;6.970;2023-03-01T03:32:39;101250.47;;;23.28;11.37
2563;BME280;1291;51.420;6.970;2023-03-01T03:35:05;101240.63;;;25.14;10.01
2563;BME280;1291;51.420;6.970;2023-03-01T03:37:43;101242.00;;;23.97;10.65
2563;BME280;1291;51.420;6.970;2023-03-01T03:40:37;101241.59;;;23.30;11.15
2563;BME280;1291;51.420;6.970;2023-03-01T03:43:05;101235.50;;;24.26;10.63
2563;BME280;1291;51.420;6.970;2023-03-01T03:45:31;101235.63;;;23.04;11.63
2563;BME280;1291;51.420;6.970;2023-03-01T03:48:05;101232.47;;;24.63;10.64
2563;BME280;1291;51.420;6.970;2023-03-01T03:50:31;101223.41;;;23.99;11.04
2563;BME280;1291;51.420;6.970;2023-03-01T03:52:56;101227.00;;;21.11;13.41
2563;BME280;1291;51.420;6.970;2023-03-01T03:55:22;101224.88;;;24.27;10.67
2563;BME280;1291;51.420;6.970;2023-03-01T03:57:48;101224.06;;;23.16;11.66
2563;BME280;1291;51.420;6.970;2023-03-01T04:00:21;101216.16;;;24.16;10.63
2563;BME280;1291;51.420;6.970;2023-03-01T04:02:49;101212.66;;;25.49;9.73
2563;BME280;1291;51.420;6.970;2023-03-01T04:05:16;101206.13;;;24.41;10.13
2563;BME280;1291;51.420;6.970;2023-03-01T04:07:42;101200.44;;;26.37;9.13
2563;BME280;1291;51.420;6.970;2023-03-01T04:10:10;101202.25;;;25.35;9.79
2563;BME280;1291;51.420;6.970;2023-03-01T04:12:36;101201.31;;;24.00;10.54
2563;BME280;1291;51.420;6.970;2023-03-01T04:15:03;101200.00;;;25.06;9.95
2563;BME280;1291;51.420;6.970;2023-03-01T04:17:46;101198.81;;;23.84;10.70
2563;BME280;1291;51.420;6.970;2023-03-01T04:20:16;101206.06;;;23.58;11.30
2563;BME280;1291;51.420;6.970;2023-03-01T04:22:44;101211.72;;;23.13;11.21
2563;BME280;1291;51.420;6.970;2023-03-01T04:25:12;101200.69;;;21.45;12.64
2563;BME280;1291;51.420;6.970;2023-03-01T04:27:40;101197.22;;;23.59;10.99
2563;BME280;1291;51.420;6.970;2023-03-01T04:30:08;101203.59;;;23.38;11.16
2563;BME280;1291;51.420;6.970;2023-03-01T04:32:33;101212.66;;;23.00;11.50
2563;BME280;1291;51.420;6.970;2023-03-01T04:34:59;101217.16;;;22.81;12.04
2563;BME280;1291;51.420;6.970;2023-03-01T04:37:25;101214.47;;;22.85;11.44
2563;BME280;1291;51.420;6.970;2023-03-01T04:39:50;101204.78;;;22.86;11.69
2563;BME280;1291;51.420;6.970;2023-03-01T04:42:16;101212.09;;;22.04;12.36
2563;BME280;1291;51.420;6.970;2023-03-01T04:44:43;101204.91;;;22.61;11.80
2563;BME280;1291;51.420;6.970;2023-03-01T04:47:08;101203.78;;;23.07;11.48
2563;BME280;1291;51.420;6.970;2023-03-01T04:49:34;101201.66;;;23.58;11.64
2563;BME280;1291;51.420;6.970;2023-03-01T04:51:59;101201.59;;;21.62;12.54
2563;BME280;1291;51.420;6.970;2023-03-01T04:54:27;101200.78;;;25.13;9.98
2563;BME280;1291;51.420;6.970;2023-03-01T04:56:53;101195.19;;;22.66;11.61
2563;BME280;1291;51.420;6.970;2023-03-01T04:59:19;101197.94;;;22.20;12.06
2563;BME280;1291;51.420;6.970;2023-03-01T05:01:49;101198.94;;;21.76;12.83
2563;BME280;1291;51.420;6.970;2023-03-01T05:04:14;101208.34;;;20.57;13.49
2563;BME280;1291;51.420;6.970;2023-03-01T05:06:40;101196.28;;;21.76;12.17
2563;BME280;1291;51.420;6.970;2023-03-01T05:09:05;101199.72;;;21.00;12.99
2563;BME280;1291;51.420;6.970;2023-03-01T05:11:31;101197.91;;;20.85;13.30
2563;BME280;1291;51.420;6.970;2023-03-01T05:14:01;101184.78;;;22.03;12.53
2563;BME280;1291;51.420;6.970;2023-03-01T05:16:27;101177.69;;;23.71;10.95
2563;BME280;1291;51.420;6.970;2023-03-01T05:18:52;101180.91;;;22.90;11.40
2563;BME280;1291;51.420;6.970;2023-03-01T05:21:17;101177.66;;;22.24;11.87
2563;BME280;1291;51.420;6.970;2023-03-01T05:23:44;101179.56;;;21.43;13.06
2563;BME280;1291;51.420;6.970;2023-03-01T05:26:09;101182.88;;;19.30;14.37
2563;BME280;1291;51.420;6.970;2023-03-01T05:28:35;101172.19;;;20.33;13.75
2563;BME280;1291;51.420;6.970;2023-03-01T05:31:00;101175.97;;;22.07;12.08
2563;BME280;1291;51.420;6.970;2023-03-01T05:33:26;101180.50;;;19.61;14.31
2563;BME280;1291;51.420;6.970;2023-03-01T05:35:52;101180.88;;;20.17;13.93
2563;BME280;1291;51.420;6.970;2023-03-01T05:38:19;101163.72;;;21.52;12.92
2563;BME280;1291;51.420;6.970;2023-03-01T05:40:47;101169.81;;;21.02;13.42
2563;BME280;1291;51.420;6.970;2023-03-01T05:43:14;101170.75;;;21.58;12.74
2563;BME280;1291;51.420;6.970;2023-03-01T05:45:41;101166.69;;;23.12;11.37
2563;BME280;1291;51.420;6.970;2023-03-01T05:48:08;101172.63;;;23.41;11.39
2563;BME280;1291;51.420;6.970;2023-03-01T05:50:38;101181.78;;;20.17;13.51
2563;BME280;1291;51.420;6.970;2023-03-01T05:53:11;101176.28;;;23.29;11.56
2563;BME280;1291;51.420;6.970;2023-03-01T05:55:37;101184.78;;;21.02;13.06
2563;BME280;1291;51.420;6.970;2023-03-01T05:58:05;101184.91;;;19.61;14.51
2563;BME280;1291;51.420;6.970;2023-03-01T06:00:31;101168.06;;;21.07;13.19
2563;BME280;1291;51.420;6.970;2023-03-01T06:02:58;101176.75;;;19.31;14.88
2563;BME280;1291;51.420;6.970;2023-03-01T06:05:24;101170.72;;;21.73;12.34
2563;BME280;1291;51.420;6.970;2023-03-01T06:07:50;101175.47;;;19.89;13.87
2563;BME280;1291;51.420;6.970;2023-03-01T06:10:17;101176.22;;;19.72;14.20
2563;BME280;1291;51.420;6.970;2023-03-01T06:12:43;101170.22;;;19.92;14.13
2563;BME280;1291;51.420;6.970;2023-03-01T06:15:10;101165.34;;;20.72;13.21
2563;BME280;1291;51.420;6.970;2023-03-01T06:17:38;101160.13;;;21.30;12.98
2563;BME280;1291;51.420;6.970;2023-03-01T06:20:05;101162.91;;;19.57;14.31
2563;BME280;1291;51.420;6.970;2023-03-01T06:22:31;101161.91;;;21.22;12.71
2563;BME280;1291;51.420;6.970;2023-03-01T06:24:56;101171.53;;;20.89;13.45
2563;BME280;1291;51.420;6.970;2023-03-01T06:27:21;101163.63;;;21.97;12.21
2563;BME280;1291;51.420;6.970;2023-03-01T06:29:47;101174.16;;;20.74;13.13
2563;BME280;1291;51.420;6.970;2023-03-01T06:32:12;101160.13;;;23.56;10.86
2563;BME280;1291;51.420;6.970;2023-03-01T06:34:37;101156.84;;;23.27;11.09
2563;BME280;1291;51.420;6.970;2023-03-01T06:37:03;101153.09;;;21.19;12.35
2563;BME280;1291;51.420;6.970;2023-03-01T06:39:31;101156.28;;;22.76;11.39
2563;BME280;1291;51.420;6.970;2023-03-01T06:41:57;101160.84;;;20.51;13.07
2563;BME280;1291;51.420;6.970;2023-03-01T06:44:23;101150.13;;;22.69;11.54
2563;BME280;1291;51.420;6.970;2023-03-01T06:46:48;101161.84;;;20.82;12.90
2563;BME280;1291;51.420;6.970;2023-03-01T06:49:13;101162.34;;;20.00;13.50
2563;BME280;1291;51.420;6.970;2023-03-01T06:51:41;101162.69;;;20.73;13.53
2563;BME280;1291;51.420;6.970;2023-03-01T06:54:06;101165.44;;;21.26;12.77
2563;BME280;1291;51.420;6.970;2023-03-01T06:56:32;101162.75;;;22.07;12.11
2563;BME280;1291;51.420;6.970;2023-03-01T06:58:58;101165.28;;;22.38;11.52
2563;BME280;1291;51.420;6.970;2023-03-01T07:01:24;101165.66;;;23.31;11.04
2563;BME280;1291;51.420;6.970;2023-03-01T07:03:50;101161.25;;;24.23;10.43
2563;BME280;1291;51.420;6.970;2023-03-01T07:06:15;101165.34;;;22.27;12.10
2563;BME280;1291;51.420;6.970;2023-03-01T07:08:40;101163.25;;;22.96;11.31
2563;BME280;1291;51.420;6.970;2023-03-01T07:11:06;101156.16;;;23.04;11.76
2563;BME280;1291;51.420;6.970;2023-03-01T07:13:32;101154.75;;;23.65;11.20
2563;BME280;1291;51.420;6.970;2023-03-01T07:15:59;101157.28;;;20.41;13.70
2563;BME280;1291;51.420;6.970;2023-03-01T07:18:24;101147.28;;;23.05;11.88
2563;BME280;1291;51.420;6.970;2023-03-01T07:20:49;101149.44;;;22.32;12.02
2563;BME280;1291;51.420;6.970;2023-03-01T07:23:15;101141.50;;;23.63;11.26
2563;BME280;1291;51.420;6.970;2023-03-01T07:25:40;101149.47;;;22.24;12.05
2563;BME280;1291;51.420;6.970;2023-03-01T07:28:05;101145.13;;;20.80;12.84
2563;BME280;1291;51.420;6.970;2023-03-01T07:30:31;101145.22;;;21.43;12.84
2563;BME280;1291;51.420;6.970;2023-03-01T07:32:59;101141.59;;;20.77;13.57
2563;BME280;1291;51.420;6.970;2023-03-01T07:35:26;101142.53;;;21.02;13.47
2563;BME280;1291;51.420;6.970;2023-03-01T07:37:52;101138.09;;;21.07;13.29
2563;BME280;1291;51.420;6.970;2023-03-01T07:40:17;101139.03;;;21.27;13.00
2563;BME280;1291;51.420;6.970;2023-03-01T07:42:42;101144.31;;;21.64;12.73
2563;BME280;1291;51.420;6.970;2023-03-01T07:45:08;101146.06;;;21.25;13.25
2563;BME280;1291;51.420;6.970;2023-03-01T07:47:34;101140.72;;;23.52;11.37
2563;BME280;1291;51.420;6.970;2023-03-01T07:49:59;101146.06;;;21.35;12.83
2563;BME280;1291;51.420;6.970;2023-03-01T07:52:26;101145.03;;;22.37;12.31
2563;BME280;1291;51.420;6.970;2023-03-01T07:54:52;101151.97;;;20.29;14.15
2563;BME280;1291;51.420;6.970;2023-03-01T07:57:17;101150.47;;;21.63;12.76
2563;BME280;1291;51.420;6.970;2023-03-01T07:59:43;101143.38;;;21.01;13.28
2563;BME280;1291;51.420;6.970;2023-03-01T08:02:09;101138.03;;;23.58;11.55
2563;BME280;1291;51.420;6.970;2023-03-01T08:04:35;101151.28;;;22.05;12.53
2563;BME280;1291;51.420;6.970;2023-03-01T08:07:00;101148.03;;;24.86;10.61
2563;BME280;1291;51.420;6.970;2023-03-01T08:09:26;101152.94;;;22.46;11.74
2563;BME280;1291;51.420;6.970;2023-03-01T08:11:52;101151.66;;;23.12;11.65
2563;BME280;1291;51.420;6.970;2023-03-01T08:14:17;101151.28;;;21.93;12.62
2563;BME280;1291;51.420;6.970;2023-03-01T08:16:42;101160.75;;;20.34;14.14
2563;BME280;1291;51.420;6.970;2023-03-01T08:19:10;101151.13;;;23.78;11.06
2563;BME280;1291;51.420;6.970;2023-03-01T08:21:36;101150.31;;;25.11;10.01
2563;BME280;1291;51.420;6.970;2023-03-01T08:24:06;101149.28;;;24.61;10.75
2563;BME280;1291;51.420;6.970;2023-03-01T08:26:33;101146.06;;;21.67;12.28
2563;BME280;1291;51.420;6.970;2023-03-01T08:29:00;101145.03;;;22.36;12.29
2563;BME280;1291;51.420;6.970;2023-03-01T08:31:32;101145.66;;;22.82;11.62
2563;BME280;1291;51.420;6.970;2023-03-01T08:34:00;101140.75;;;21.22;13.20
2563;BME280;1291;51.420;6.970;2023-03-01T08:36:37;101138.69;;;25.18;9.92
2563;BME280;1291;51.420;6.970;2023-03-01T08:39:04;101143.25;;;22.36;11.66
2563;BME280;1291;51.420;6.970;2023-03-01T08:41:29;101137.97;;;24.45;10.79
2563;BME280;1291;51.420;6.970;2023-03-01T08:43:55;101125.25;;;22.97;12.01
2563;BME280;1291;51.420;6.970;2023-03-01T08:46:29;101137.81;;;22.65;11.71
2563;BME280;1291;51.420;6.970;2023-03-01T08:48:56;101134.28;;;22.63;12.27
2563;BME280;1291;51.420;6.970;2023-03-01T08:51:23;101128.44;;;21.12;13.18
2563;BME280;1291;51.420;6.970;2023-03-01T08:53:49;101136.28;;;20.64;13.54
2563;BME280;1291;51.420;6.970;2023-03-01T08:56:15;101133.69;;;21.89;12.70
2563;BME280;1291;51.420;6.970;2023-03-01T08:58:48;101126.00;;;25.37;9.50
2563;BME280;1291;51.420;6.970;2023-03-01T09:01:18;101121.47;;;24.85;10.27
2563;BME280;1291;51.420;6.970;2023-03-01T09:03:44;101126.59;;;22.03;12.52
2563;BME280;1291;51.420;6.970;2023-03-01T09:06:11;101113.84;;;24.62;10.42
2563;BME280;1291;51.420;6.970;2023-03-01T09:08:38;101119.09;;;23.95;10.85
2563;BME280;1291;51.420;6.970;2023-03-01T09:11:06;101129.19;;;22.12;12.22
2563;BME280;1291;51.420;6.970;2023-03-01T09:13:32;101121.34;;;21.94;12.37
2563;BME280;1291;51.420;6.970;2023-03-01T09:16:00;101120.59;;;24.86;10.29
2563;BME280;1291;51.420;6.970;2023-03-01T09:18:26;101111.22;;;25.19;10.32
2563;BME280;1291;51.420;6.970;2023-03-01T09:20:51;101115.59;;;26.62;9.08
2563;BME280;1291;51.420;6.970;2023-03-01T09:23:16;101111.34;;;23.74;10.94
2563;BME280;1291;51.420;6.970;2023-03-01T09:25:42;101108.25;;;23.28;11.57
2563;BME280;1291;51.420;6.970;2023-03-01T09:28:07;101101.41;;;26.18;9.50
2563;BME280;1291;51.420;6.970;2023-03-01T09:30:32;101110.72;;;21.97;12.33
2563;BME280;1291;51.420;6.970;2023-03-01T09:32:58;101108.88;;;26.00;9.58
2563;BME280;1291;51.420;6.970;2023-03-01T09:35:23;101105.41;;;24.96;10.13
2563;BME280;1291;51.420;6.970;2023-03-01T09:37:49;101092.53;;;26.58;9.00
2563;BME280;1291;51.420;6.970;2023-03-01T09:40:26;101092.38;;;25.35;9.79
2563;BME280;1291;51.420;6.970;2023-03-01T09:42:59;101085.91;;;25.48;9.63
2563;BME280;1291;51.420;6.970;2023-03-01T09:45:39;101075.75;;;27.95;8.02
2563;BME280;1291;51.420;6.970;2023-03-01T09:48:13;101080.97;;;24.05;10.51
2563;BME280;1291;51.420;6.970;2023-03-01T09:50:42;101088.56;;;27.15;8.64
2563;BME280;1291;51.420;6.970;2023-03-01T09:53:17;101083.31;;;24.91;9.99
2563;BME280;1291;51.420;6.970;2023-03-01T09:55:59;101091.47;;;23.31;11.05
2563;BME280;1291;51.420;6.970;2023-03-01T10:01:35;101091.06;;;22.60;11.56
2563;BME280;1291;51.420;6.970;2023-03-01T10:09:38;101092.16;;;26.36;8.78
2563;BME280;1291;51.420;6.970;2023-03-01T10:12:09;101089.69;;;25.81;9.40
2563;BME280;1291;51.420;6.970;2023-03-01T10:14:40;101087.50;;;24.46;9.97
2563;BME280;1291;51.420;6.970;2023-03-01T10:20:14;101084.88;;;25.04;9.65
2563;BME280;1291;51.420;6.970;2023-03-01T10:22:41;101075.31;;;24.33;10.37
2563;BME280;1291;51.420;6.970;2023-03-01T10:25:13;101063.25;;;27.97;8.20
2563;BME280;1291;51.420;6.970;2023-03-01T10:27:51;101067.34;;;23.59;10.42
2563;BME280;1291;51.420;6.970;2023-03-01T10:30:41;101056.19;;;26.16;8.61
2563;BME280;1291;51.420;6.970;2023-03-01T10:33:26;101061.38;;;22.05;11.43
2563;BME280;1291;51.420;6.970;2023-03-01T10:35:52;101068.88;;;22.79;11.31
2563;BME280;1291;51.420;6.970;2023-03-01T10:38:19;101057.41;;;23.79;10.70
2563;BME280;1291;51.420;6.970;2023-03-01T10:40:58;101058.22;;;26.85;8.55
2563;BME280;1291;51.420;6.970;2023-03-01T10:43:28;101056.25;;;26.91;8.18
2563;BME280;1291;51.420;6.970;2023-03-01T10:45:57;101054.03;;;26.74;8.42
2563;BME280;1291;51.420;6.970;2023-03-01T10:48:24;101044.63;;;21.99;11.54
2563;BME280;1291;51.420;6.970;2023-03-01T10:53:37;101030.91;;;24.44;9.99
2563;BME280;1291;51.420;6.970;2023-03-01T10:56:10;101027.78;;;27.29;8.23
2563;BME280;1291;51.420;6.970;2023-03-01T10:58:39;101018.94;;;29.29;6.48
2563;BME280;1291;51.420;6.970;2023-03-01T11:01:09;101021.91;;;26.80;8.39
2563;BME280;1291;51.420;6.970;2023-03-01T11:06:36;101014.50;;;26.17;8.67
2563;BME280;1291;51.420;6.970;2023-03-01T11:09:20;101006.53;;;26.54;8.47
2563;BME280;1291;51.420;6.970;2023-03-01T11:11:52;101009.34;;;27.18;7.38
2563;BME280;1291;51.420;6.970;2023-03-01T11:14:22;101011.75;;;29.31;6.51
2563;BME280;1291;51.420;6.970;2023-03-01T11:16:58;101015.69;;;27.14;7.54
2563;BME280;1291;51.420;6.970;2023-03-01T11:19:24;101009.19;;;29.77;6.62
2563;BME280;1291;51.420;6.970;2023-03-01T11:24:18;101008.44;;;24.67;9.87
2563;BME280;1291;51.420;6.970;2023-03-01T11:26:47;101014.25;;;24.33;9.57
2563;BME280;1291;51.420;6.970;2023-03-01T11:29:38;101003.13;;;24.06;9.79
2563;BME280;1291;51.420;6.970;2023-03-01T11:32:08;101001.56;;;25.06;9.18
2563;BME280;1291;51.420;6.970;2023-03-01T11:35:01;100987.28;;;25.60;8.64
2563;BME280;1291;51.420;6.970;2023-03-01T11:40:24;101003.94;;;27.21;7.76
2563;BME280;1291;51.420;6.970;2023-03-01T11:48:40;101003.56;;;28.84;7.16
2563;BME280;1291;51.420;6.970;2023-03-01T11:56:58;100995.75;;;24.86;8.82
2563;BME280;1291;51.420;6.970;2023-03-01T11:59:39;100996.31;;;24.52;9.09
2563;BME280;1291;51.420;6.970;2023-03-01T12:07:54;100975.28;;;27.63;7.93
2563;BME280;1291;51.420;6.970;2023-03-01T12:18:30;100975.31;;;27.30;7.99
2563;BME280;1291;51.420;6.970;2023-03-01T12:21:15;100961.72;;;29.33;6.49
2563;BME280;1291;51.420;6.970;2023-03-01T12:24:10;100959.13;;;27.97;6.94
2563;BME280;1291;51.420;6.970;2023-03-01T12:34:50;100947.94;;;23.68;10.26
2563;BME280;1291;51.420;6.970;2023-03-01T12:42:54;100934.72;;;27.50;8.08
2563;BME280;1291;51.420;6.970;2023-03-01T12:46:00;100936.59;;;26.09;8.53
2563;BME280;1291;51.420;6.970;2023-03-01T12:51:15;100930.84;;;29.25;7.19
2563;BME280;1291;51.420;6.970;2023-03-01T12:53:47;100919.06;;;27.06;8.10
2563;BME280;1291;51.420;6.970;2023-03-01T12:56:17;100931.59;;;25.54;8.89
2563;BME280;1291;51.420;6.970;2023-03-01T12:58:57;100925.28;;;25.99;8.58
2563;BME280;1291;51.420;6.970;2023-03-01T13:04:22;100928.94;;;28.50;6.99
2563;BME280;1291;51.420;6.970;2023-03-01T13:09:34;100927.91;;;25.15;9.02
2563;BME280;1291;51.420;6.970;2023-03-01T13:12:01;100913.53;;;27.75;7.57
2563;BME280;1291;51.420;6.970;2023-03-01T13:16:52;100903.09;;;24.67;9.39
2563;BME280;1291;51.420;6.970;2023-03-01T13:19:20;100904.34;;;26.60;8.34
2563;BME280;1291;51.420;6.970;2023-03-01T13:21:48;100910.94;;;25.20;8.96
2563;BME280;1291;51.420;6.970;2023-03-01T13:29:55;100897.81;;;26.34;8.36
2563;BME280;1291;51.420;6.970;2023-03-01T13:34:51;100893.28;;;25.19;9.33
2563;BME280;1291;51.420;6.970;2023-03-01T13:37:22;100880.41;;;27.82;7.85
2563;BME280;1291;51.420;6.970;2023-03-01T13:39:48;100882.28;;;26.52;8.18
2563;BME280;1291;51.420;6.970;2023-03-01T13:42:35;100878.50;;;29.17;7.00
2563;BME280;1291;51.420;6.970;2023-03-01T13:45:04;100878.00;;;28.56;6.99
2563;BME280;1291;51.420;6.970;2023-03-01T13:47:30;100872.91;;;29.93;6.30
2563;BME280;1291;51.420;6.970;2023-03-01T13:50:00;100878.19;;;27.07;8.12
2563;BME280;1291;51.420;6.970;2023-03-01T13:52:48;100874.41;;;26.49;8.48
2563;BME280;1291;51.420;6.970;2023-03-01T13:55:25;100862.16;;;25.67;9.12
2563;BME280;1291;51.420;6.970;2023-03-01T13:57:59;100861.84;;;26.18;8.55
2563;BME280;1291;51.420;6.970;2023-03-01T14:00:36;100857.66;;;24.83;9.54
2563;BME280;1291;51.420;6.970;2023-03-01T14:05:35;100865.78;;;24.75;9.51
2563;BME280;1291;51.420;6.970;2023-03-01T14:08:03;100857.75;;;28.99;7.12
2563;BME280;1291;51.420;6.970;2023-03-01T14:10:53;100855.53;;;26.22;8.46
2563;BME280;1291;51.420;6.970;2023-03-01T14:13:49;100847.75;;;28.55;7.28
2563;BME280;1291;51.420;6.970;2023-03-01T14:17:10;100843.41;;;27.10;7.88
2563;BME280;1291;51.420;6.970;2023-03-01T14:19:40;100837.38;;;26.03;8.47
2563;BME280;1291;51.420;6.970;2023-03-01T14:24:49;100829.03;;;29.75;6.64
2563;BME280;1291;51.420;6.970;2023-03-01T14:27:15;100830.56;;;28.11;7.41
2563;BME280;1291;51.420;6.970;2023-03-01T14:30:03;100824.84;;;28.97;6.76
2563;BME280;1291;51.420;6.970;2023-03-01T14:32:31;100826.53;;;28.24;7.36
2563;BME280;1291;51.420;6.970;2023-03-01T14:34:59;100823.88;;;27.69;7.59
2563;BME280;1291;51.420;6.970;2023-03-01T14:37:28;100816.88;;;27.07;8.54
2563;BME280;1291;51.420;6.970;2023-03-01T14:39:55;100814.88;;;29.02;7.22
2563;BME280;1291;51.420;6.970;2023-03-01T14:42:23;100814.00;;;29.02;7.10
2563;BME280;1291;51.420;6.970;2023-03-01T14:44:53;100817.88;;;27.91;7.39
2563;BME280;1291;51.420;6.970;2023-03-01T14:47:28;100811.41;;;27.98;7.33
2563;BME280;1291;51.420;6.970;2023-03-01T14:49:58;100810.16;;;25.53;9.30
2563;BME280;1291;51.420;6.970;2023-03-01T14:52:40;100797.84;;;27.19;8.08
2563;BME280;1291;51.420;6.970;2023-03-01T14:55:15;100795.53;;;27.07;8.22
2563;BME280;1291;51.420;6.970;2023-03-01T14:57:47;100793.16;;;29.11;7.13
2563;BME280;1291;51.420;6.970;2023-03-01T15:00:19;100796.69;;;25.98;8.51
2563;BME280;1291;51.420;6.970;2023-03-01T15:02:47;100800.19;;;26.69;8.21
2563;BME280;1291;51.420;6.970;2023-03-01T15:05:14;100788.19;;;26.86;8.76